Time;durP1;ratioP1;P1;durP2;ratioP2;P2;SDS_P1;SDS_P2;PMS_P1;PMS_P2;Temp;Humidity;BMP_temperature;BMP_pressure;BME280_temperature;BME280_humidity;BME280_pressure;Samples;Min_cycle;Max_cycle;Signal;HPM_P1;HPM_P2
2024/03/24 00:01:08;;;;;;;5.20;1.77;;;5.90;99.90;;;;;;5009541;28;20072;-71
2024/03/24 00:03:35;;;;;;;5.30;0.88;;;6.00;99.90;;;;;;5009682;28;20037;-73
2024/03/24 00:06:00;;;;;;;3.00;1.02;;;6.00;99.90;;;;;;5009583;28;20038;-71
2024/03/24 00:08:26;;;;;;;5.15;1.65;;;5.90;99.90;;;;;;5011132;28;20052;-73
2024/03/24 00:10:51;;;;;;;7.47;1.52;;;6.00;99.90;;;;;;4997946;28;20511;-72
2024/03/24 00:13:17;;;;;;;4.30;1.55;;;5.90;99.90;;;;;;5011879;28;20953;-72
2024/03/24 00:15:43;;;;;;;8.15;1.60;;;5.90;99.90;;;;;;5008060;28;20048;-73
2024/03/24 00:18:08;;;;;;;4.63;1.10;;;5.90;99.90;;;;;;4996725;28;20038;-73
2024/03/24 00:20:35;;;;;;;5.28;1.25;;;5.90;99.90;;;;;;5006645;28;20038;-70
2024/03/24 00:23:01;;;;;;;4.07;1.45;;;5.90;99.90;;;;;;5011195;28;20026;-72
2024/03/24 00:25:27;;;;;;;9.40;1.63;;;5.90;99.90;;;;;;5012567;28;20033;-72
2024/03/24 00:27:52;;;;;;;3.97;1.35;;;5.90;99.90;;;;;;5008510;28;20053;-73
2024/03/24 00:30:18;;;;;;;6.90;2.33;;;6.00;99.90;;;;;;5004852;28;20038;-74
2024/03/24 00:32:44;;;;;;;7.28;2.47;;;6.00;99.90;;;;;;5013821;28;20042;-71
2024/03/24 00:35:09;;;;;;;13.45;1.75;;;6.00;99.90;;;;;;5007126;28;20046;-71
2024/03/24 00:37:36;;;;;;;4.82;1.30;;;6.00;99.90;;;;;;5005821;28;20037;-72
2024/03/24 00:40:01;;;;;;;5.18;2.08;;;6.00;99.90;;;;;;5011065;28;20038;-72
2024/03/24 00:42:27;;;;;;;8.73;1.70;;;6.00;99.90;;;;;;5012134;28;20034;-72
2024/03/24 00:44:53;;;;;;;5.68;1.92;;;6.10;99.90;;;;;;5011193;28;20072;-72
2024/03/24 00:47:19;;;;;;;2.40;1.25;;;6.10;99.90;;;;;;5014299;28;20072;-71
2024/03/24 00:49:45;;;;;;;3.97;1.25;;;6.10;99.90;;;;;;5009053;28;20034;-72
2024/03/24 00:52:10;;;;;;;3.58;1.17;;;6.10;99.90;;;;;;5011286;28;20045;-71
2024/03/24 00:54:36;;;;;;;5.68;1.17;;;6.10;99.90;;;;;;5015590;28;20033;-73
2024/03/24 00:57:01;;;;;;;9.90;1.50;;;6.10;99.90;;;;;;5015904;28;20049;-71
2024/03/24 00:59:27;;;;;;;7.28;1.40;;;6.10;99.90;;;;;;5013742;28;20030;-70
2024/03/24 01:01:53;;;;;;;4.63;1.13;;;6.10;99.90;;;;;;5012800;28;20056;-72
2024/03/24 01:04:18;;;;;;;5.90;1.27;;;6.10;99.90;;;;;;5017977;28;20116;-73
2024/03/24 01:06:44;;;;;;;3.65;0.88;;;6.10;99.90;;;;;;4999324;28;20034;-72
2024/03/24 01:09:10;;;;;;;5.25;1.35;;;6.10;99.90;;;;;;4986430;28;20045;-72
2024/03/24 01:11:36;;;;;;;4.88;1.20;;;6.10;99.90;;;;;;5004145;28;20041;-72
2024/03/24 01:14:02;;;;;;;4.10;0.88;;;6.10;99.90;;;;;;5016781;28;21024;-71
2024/03/24 01:16:27;;;;;;;9.43;3.03;;;6.10;99.90;;;;;;5018035;28;20511;-72
2024/03/24 01:18:53;;;;;;;8.43;1.98;;;6.10;99.90;;;;;;5017231;28;20033;-72
2024/03/24 01:21:19;;;;;;;6.90;1.30;;;6.20;99.90;;;;;;5018054;28;20420;-72
2024/03/24 01:23:44;;;;;;;5.22;1.13;;;6.10;99.90;;;;;;5014293;28;20037;-72
2024/03/24 01:26:10;;;;;;;5.32;1.63;;;6.10;99.90;;;;;;5016199;28;20783;-69
2024/03/24 01:28:36;;;;;;;10.07;2.35;;;6.10;99.90;;;;;;5008997;28;20038;-72
2024/03/24 01:31:02;;;;;;;11.43;2.45;;;6.20;99.90;;;;;;5015264;28;20100;-72
2024/03/24 01:33:27;;;;;;;7.30;1.80;;;6.30;99.90;;;;;;4999294;28;20392;-69
2024/03/24 01:35:53;;;;;;;7.22;2.42;;;6.20;99.90;;;;;;5014630;28;20181;-72
2024/03/24 01:38:18;;;;;;;6.57;1.02;;;6.20;99.90;;;;;;5000670;28;20052;-73
2024/03/24 01:40:48;;;;;;;12.80;1.92;;;6.30;99.90;;;;;;5015103;28;20040;-73
2024/03/24 01:43:14;;;;;;;10.67;1.93;;;6.30;99.90;;;;;;5014462;28;20471;-72
2024/03/24 01:45:40;;;;;;;6.63;1.88;;;6.40;99.90;;;;;;5015997;28;20065;-71
2024/03/24 01:48:06;;;;;;;5.18;1.55;;;6.40;99.90;;;;;;5014720;28;20383;-72
2024/03/24 01:50:32;;;;;;;7.22;2.05;;;6.30;99.90;;;;;;4990938;28;20043;-71
2024/03/24 01:52:58;;;;;;;4.63;1.25;;;6.30;99.90;;;;;;5017012;28;20042;-72
2024/03/24 01:55:24;;;;;;;7.40;1.80;;;6.30;99.90;;;;;;5016462;28;20765;-72
2024/03/24 01:57:49;;;;;;;9.90;1.63;;;6.30;99.90;;;;;;5019462;28;20046;-71
2024/03/24 02:00:16;;;;;;;13.30;1.55;;;6.30;99.90;;;;;;5017517;28;20042;-71
2024/03/24 02:02:41;;;;;;;9.65;2.15;;;6.40;99.90;;;;;;5003866;28;20092;-71
2024/03/24 02:05:07;;;;;;;9.10;2.13;;;6.40;99.90;;;;;;5009820;28;20054;-70
2024/03/24 02:07:33;;;;;;;19.30;2.42;;;6.40;99.90;;;;;;5017659;28;20840;-71
2024/03/24 02:09:59;;;;;;;8.77;1.67;;;6.40;99.90;;;;;;5018085;28;20133;-72
2024/03/24 02:12:25;;;;;;;13.50;1.98;;;6.40;99.90;;;;;;4996032;28;20402;-72
2024/03/24 02:14:50;;;;;;;13.43;1.92;;;6.40;99.90;;;;;;5015577;28;20026;-72
2024/03/24 02:17:16;;;;;;;10.77;2.53;;;6.40;99.90;;;;;;5019027;28;20044;-72
2024/03/24 02:19:42;;;;;;;14.70;3.88;;;6.40;99.90;;;;;;5000815;28;20092;-69
2024/03/24 02:22:08;;;;;;;14.23;1.95;;;6.40;99.90;;;;;;5018501;28;20025;-71
2024/03/24 02:24:33;;;;;;;7.20;1.73;;;6.40;99.90;;;;;;5013798;28;20495;-72
2024/03/24 02:26:59;;;;;;;8.48;2.25;;;6.40;99.90;;;;;;5014674;28;20044;-72
2024/03/24 02:29:24;;;;;;;8.57;2.13;;;6.40;99.90;;;;;;4985990;28;20030;-71
2024/03/24 02:31:50;;;;;;;8.05;1.80;;;6.40;99.90;;;;;;5012829;28;20048;-72
2024/03/24 02:34:16;;;;;;;6.25;1.92;;;6.30;99.90;;;;;;5000504;28;20563;-72
2024/03/24 02:36:42;;;;;;;12.82;2.30;;;6.30;99.90;;;;;;5010906;28;20033;-69
2024/03/24 02:39:08;;;;;;;11.00;2.10;;;6.30;99.90;;;;;;5006484;28;20108;-71
2024/03/24 02:41:34;;;;;;;9.05;2.33;;;6.30;99.90;;;;;;5007352;28;20034;-71
2024/03/24 02:44:00;;;;;;;8.45;2.83;;;6.30;99.90;;;;;;5006303;28;20041;-73
2024/03/24 02:46:25;;;;;;;9.10;2.53;;;6.40;99.90;;;;;;4989065;28;20042;-71
2024/03/24 02:48:51;;;;;;;7.85;1.95;;;6.40;99.90;;;;;;5009100;28;20029;-72
2024/03/24 02:51:17;;;;;;;9.18;3.33;;;6.50;99.90;;;;;;5006776;28;20041;-72
2024/03/24 02:53:42;;;;;;;16.63;3.47;;;6.40;99.90;;;;;;4993449;28;20034;-70
2024/03/24 02:56:10;;;;;;;11.75;3.33;;;6.60;99.90;;;;;;5005374;28;20041;-72
2024/03/24 02:58:36;;;;;;;22.10;4.80;;;6.50;99.90;;;;;;5010900;28;20048;-72
2024/03/24 03:01:02;;;;;;;14.32;3.45;;;6.50;99.90;;;;;;5009127;28;20108;-71
2024/03/24 03:03:27;;;;;;;9.13;2.63;;;6.50;99.90;;;;;;4989950;28;20070;-72
2024/03/24 03:05:53;;;;;;;12.68;3.50;;;6.50;99.90;;;;;;5007893;28;20037;-71
2024/03/24 03:08:18;;;;;;;10.88;3.13;;;6.50;99.90;;;;;;5008112;28;20037;-69
2024/03/24 03:10:47;;;;;;;11.77;2.28;;;6.60;99.90;;;;;;5004229;28;20057;-70
2024/03/24 03:13:12;;;;;;;12.90;2.53;;;6.60;99.90;;;;;;5007872;28;20042;-71
2024/03/24 03:15:38;;;;;;;19.70;3.38;;;6.60;99.90;;;;;;5007040;28;20037;-71
2024/03/24 03:18:06;;;;;;;6.25;1.02;;;6.70;99.90;;;;;;5006936;28;20033;-72
2024/03/24 03:20:32;;;;;;;3.88;0.60;;;6.50;99.90;;;;;;5005201;28;20072;-71
2024/03/24 03:22:58;;;;;;;3.60;0.32;;;6.30;99.90;;;;;;5006949;28;20050;-71
2024/03/24 03:25:23;;;;;;;4.82;0.60;;;6.20;99.90;;;;;;5002459;28;20026;-72
2024/03/24 03:27:49;;;;;;;1.95;0.40;;;6.00;99.90;;;;;;5003736;28;20041;-70
2024/03/24 03:30:14;;;;;;;2.17;0.40;;;5.80;99.90;;;;;;4987948;28;20120;-69
2024/03/24 03:32:40;;;;;;;7.60;0.55;;;5.80;99.90;;;;;;5007565;28;20099;-71
2024/03/24 03:35:05;;;;;;;2.40;0.60;;;5.60;99.90;;;;;;5007069;28;20528;-71
2024/03/24 03:37:31;;;;;;;3.38;0.40;;;5.60;99.90;;;;;;5006080;28;20511;-71
2024/03/24 03:39:57;;;;;;;2.33;0.90;;;5.50;99.90;;;;;;5010357;28;20068;-71
2024/03/24 03:42:23;;;;;;;2.70;0.50;;;5.50;99.90;;;;;;5007935;28;20061;-71
2024/03/24 03:44:52;;;;;;;7.03;0.52;;;5.50;99.90;;;;;;5010792;28;20053;-71
2024/03/24 03:47:18;;;;;;;2.00;0.50;;;5.60;99.90;;;;;;5010524;28;20026;-71
2024/03/24 03:49:50;;;;;;;3.00;0.80;;;5.60;99.90;;;;;;5010942;28;20091;-70
2024/03/24 03:52:25;;;;;;;3.80;0.45;;;5.60;99.90;;;;;;5005309;28;20110;-70
2024/03/24 03:54:57;;;;;;;2.08;0.43;;;5.60;99.90;;;;;;5007734;28;20045;-71
2024/03/24 03:57:23;;;;;;;6.45;0.88;;;5.60;99.90;;;;;;5002546;28;20031;-71
2024/03/24 03:59:50;;;;;;;4.70;0.30;;;5.60;99.90;;;;;;5010054;28;20034;-71
2024/03/24 04:02:16;;;;;;;1.42;0.30;;;5.50;99.90;;;;;;5005657;28;20060;-71
2024/03/24 04:04:41;;;;;;;7.60;0.73;;;5.60;99.90;;;;;;5008842;28;20364;-70
2024/03/24 04:07:07;;;;;;;3.50;0.85;;;5.60;99.90;;;;;;5008347;28;20153;-71
2024/03/24 04:09:33;;;;;;;2.22;0.47;;;5.50;99.90;;;;;;5010766;28;20033;-71
2024/03/24 04:11:58;;;;;;;5.00;0.38;;;5.50;99.90;;;;;;5008183;28;20081;-71
2024/03/24 04:14:25;;;;;;;21.08;2.28;;;5.50;99.90;;;;;;5008793;28;20035;-71
2024/03/24 04:16:50;;;;;;;2.55;0.63;;;5.50;99.90;;;;;;5009967;28;20116;-71
2024/03/24 04:19:16;;;;;;;6.85;1.20;;;5.50;99.90;;;;;;5007578;28;20033;-71
2024/03/24 04:21:42;;;;;;;4.97;0.45;;;5.40;99.90;;;;;;4999876;28;20041;-70
2024/03/24 04:24:08;;;;;;;1.73;0.45;;;5.50;99.90;;;;;;5013596;28;20033;-71
2024/03/24 04:26:33;;;;;;;5.22;0.52;;;5.50;99.90;;;;;;4992787;28;20124;-71
2024/03/24 04:28:59;;;;;;;2.92;1.10;;;5.50;99.90;;;;;;4998297;28;20046;-71
2024/03/24 04:31:24;;;;;;;2.40;0.40;;;5.50;99.90;;;;;;4995876;28;20034;-70
2024/03/24 04:33:50;;;;;;;7.53;1.80;;;5.50;99.90;;;;;;5015115;28;20128;-70
2024/03/24 04:36:16;;;;;;;2.55;0.40;;;5.50;99.90;;;;;;5003496;28;20121;-71
2024/03/24 04:38:41;;;;;;;3.70;0.80;;;5.40;99.90;;;;;;4995768;28;20120;-69
2024/03/24 04:41:09;;;;;;;2.45;0.50;;;5.40;99.90;;;;;;5015414;28;20458;-68
2024/03/24 04:43:36;;;;;;;5.20;0.60;;;5.40;99.90;;;;;;5009269;28;20120;-72
2024/03/24 04:46:01;;;;;;;2.53;0.57;;;5.40;99.90;;;;;;5012105;28;20411;-71
2024/03/24 04:48:27;;;;;;;7.68;1.63;;;5.40;99.90;;;;;;5016110;28;20042;-70
2024/03/24 04:50:53;;;;;;;8.20;0.93;;;5.40;99.90;;;;;;5014610;28;20509;-71
2024/03/24 04:53:18;;;;;;;2.55;1.23;;;5.50;99.90;;;;;;5016706;28;20084;-71
2024/03/24 04:55:44;;;;;;;3.92;0.75;;;5.40;99.90;;;;;;5015719;28;20128;-71
2024/03/24 04:58:10;;;;;;;3.60;0.60;;;5.50;99.90;;;;;;5013042;28;20065;-71
2024/03/24 05:00:35;;;;;;;2.28;0.80;;;5.50;99.90;;;;;;5015684;28;20057;-71
2024/03/24 05:03:01;;;;;;;3.97;0.98;;;5.50;99.90;;;;;;5009134;28;20450;-71
2024/03/24 05:05:26;;;;;;;4.97;0.95;;;5.50;99.90;;;;;;4997904;28;20469;-69
2024/03/24 05:07:52;;;;;;;6.53;1.80;;;5.60;99.90;;;;;;5012297;28;20422;-70
2024/03/24 05:10:20;;;;;;;4.93;1.10;;;5.60;99.90;;;;;;5016747;28;20049;-70
2024/03/24 05:12:47;;;;;;;3.75;0.98;;;5.60;99.90;;;;;;5014251;28;20137;-72
2024/03/24 05:15:12;;;;;;;7.85;1.73;;;5.60;99.90;;;;;;5007939;28;20799;-72
2024/03/24 05:17:38;;;;;;;7.45;1.08;;;5.70;99.90;;;;;;4992452;28;20101;-71
2024/03/24 05:20:09;;;;;;;4.80;1.83;;;5.70;99.90;;;;;;5014158;28;20521;-70
2024/03/24 05:22:34;;;;;;;;;;;5.80;99.90;;;;;;5014675;28;20041;-70
2024/03/24 05:25:00;;;;;;;4.97;1.25;;;5.70;99.90;;;;;;4995773;28;21096;-71
2024/03/24 05:27:25;;;;;;;8.10;1.10;;;5.60;99.90;;;;;;5016593;28;20044;-71
2024/03/24 05:29:51;;;;;;;8.40;0.90;;;5.50;99.90;;;;;;5014335;28;20057;-72
2024/03/24 05:32:17;;;;;;;3.55;0.70;;;5.30;99.90;;;;;;5008567;28;20037;-70
2024/03/24 05:34:43;;;;;;;3.47;0.82;;;5.20;99.90;;;;;;5014045;28;20091;-69
2024/03/24 05:37:09;;;;;;;10.02;1.98;;;5.20;99.90;;;;;;5009980;28;20034;-71
2024/03/24 05:39:35;;;;;;;7.10;1.35;;;5.10;99.90;;;;;;5021048;28;20037;-71
2024/03/24 05:42:00;;;;;;;4.30;1.00;;;5.10;99.90;;;;;;5013264;28;20037;-71
2024/03/24 05:44:26;;;;;;;9.13;1.30;;;5.00;99.90;;;;;;5020173;28;20044;-72
2024/03/24 05:46:51;;;;;;;7.75;1.50;;;5.10;99.90;;;;;;5012958;28;20094;-72
2024/03/24 05:49:17;;;;;;;8.05;1.67;;;5.10;99.90;;;;;;5015054;28;20165;-71
2024/03/24 05:51:43;;;;;;;9.07;0.98;;;5.10;99.90;;;;;;4997298;28;20116;-70
2024/03/24 05:54:08;;;;;;;6.95;1.13;;;5.10;99.90;;;;;;5008351;28;20034;-72
2024/03/24 05:56:34;;;;;;;6.82;1.35;;;5.10;99.90;;;;;;5017114;28;20041;-71
2024/03/24 05:58:59;;;;;;;11.98;1.25;;;5.10;99.90;;;;;;5013296;28;20041;-72
2024/03/24 06:01:25;;;;;;;5.43;0.93;;;5.10;99.90;;;;;;5017567;28;20592;-72
2024/03/24 06:03:51;;;;;;;2.20;0.65;;;5.00;99.90;;;;;;5012346;28;20049;-72
2024/03/24 06:06:17;;;;;;;13.23;1.58;;;5.00;99.90;;;;;;5016427;28;20526;-72
2024/03/24 06:08:43;;;;;;;6.50;1.52;;;5.00;99.90;;;;;;4984512;28;20039;-71
2024/03/24 06:11:09;;;;;;;5.63;1.00;;;5.00;99.90;;;;;;5008571;28;20049;-69
2024/03/24 06:13:34;;;;;;;10.98;2.53;;;5.00;99.90;;;;;;5013404;28;20517;-71
2024/03/24 06:16:03;;;;;;;3.83;1.10;;;5.10;99.90;;;;;;5013975;28;20511;-71
2024/03/24 06:18:29;;;;;;;10.48;1.45;;;5.10;99.90;;;;;;5019027;28;20034;-71
2024/03/24 06:20:54;;;;;;;19.05;1.90;;;5.20;99.90;;;;;;5012686;28;20062;-72
2024/03/24 06:23:21;;;;;;;10.32;2.00;;;5.20;99.90;;;;;;5015413;28;20029;-71
2024/03/24 06:25:47;;;;;;;8.35;1.75;;;5.30;99.90;;;;;;4987897;28;20498;-71
2024/03/24 06:28:13;;;;;;;10.02;1.80;;;5.40;99.90;;;;;;5010364;28;20517;-71
2024/03/24 06:30:40;;;;;;;7.15;1.92;;;5.40;99.90;;;;;;5006376;28;20026;-71
2024/03/24 06:33:06;;;;;;;10.93;2.83;;;5.50;99.90;;;;;;5012191;28;20033;-71
2024/03/24 06:35:31;;;;;;;15.27;2.60;;;5.60;99.90;;;;;;5005023;28;20408;-72
2024/03/24 06:37:57;;;;;;;8.75;1.73;;;5.60;99.90;;;;;;5006244;28;20045;-71
2024/03/24 06:40:23;;;;;;;16.08;2.83;;;5.70;99.90;;;;;;5006442;28;20038;-71
2024/03/24 06:42:59;;;;;;;10.13;3.03;;;5.80;99.90;;;;;;5008957;28;20042;-71
2024/03/24 06:45:28;;;;;;;14.07;2.40;;;5.90;99.90;;;;;;5006159;28;21004;-71
2024/03/24 06:47:54;;;;;;;16.48;3.20;;;6.00;99.90;;;;;;5013099;28;20037;-71
2024/03/24 06:50:20;;;;;;;13.73;4.15;;;6.10;99.90;;;;;;5003956;28;20048;-71
2024/03/24 06:52:45;;;;;;;13.75;2.70;;;6.10;99.90;;;;;;5006019;28;20041;-71
2024/03/24 06:55:11;;;;;;;12.80;2.40;;;6.20;99.90;;;;;;5008627;28;20044;-69
2024/03/24 06:57:36;;;;;;;14.45;2.92;;;6.20;99.90;;;;;;5007106;28;20034;-71
2024/03/24 07:00:02;;;;;;;20.13;2.75;;;6.20;99.90;;;;;;5010816;28;20041;-70
2024/03/24 07:02:28;;;;;;;15.98;3.03;;;6.20;99.90;;;;;;4987061;28;20526;-71
2024/03/24 07:04:54;;;;;;;22.05;2.72;;;6.30;99.90;;;;;;5005510;28;20042;-71
2024/03/24 07:07:20;;;;;;;14.73;2.03;;;6.30;99.90;;;;;;5011867;28;20038;-70
2024/03/24 07:09:46;;;;;;;20.25;4.07;;;6.30;99.90;;;;;;5007703;28;20038;-70
2024/03/24 07:12:12;;;;;;;19.23;3.38;;;6.40;99.90;;;;;;5004513;28;20614;-71
2024/03/24 07:14:37;;;;;;;10.13;2.88;;;6.40;99.90;;;;;;5001745;28;20133;-72
2024/03/24 07:17:03;;;;;;;11.57;2.45;;;6.40;99.90;;;;;;5010941;28;20056;-70
2024/03/24 07:19:29;;;;;;;10.60;3.08;;;6.50;99.90;;;;;;5008022;28;20033;-72
2024/03/24 07:21:54;;;;;;;17.80;3.58;;;6.60;99.90;;;;;;5001599;28;20051;-72
2024/03/24 07:24:20;;;;;;;15.60;2.75;;;6.80;99.90;;;;;;5010193;28;20034;-71
2024/03/24 07:26:45;;;;;;;14.63;3.13;;;6.90;99.90;;;;;;5008597;28;20039;-70
2024/03/24 07:29:11;;;;;;;8.70;2.03;;;6.90;99.90;;;;;;5009944;28;20071;-72
2024/03/24 07:31:37;;;;;;;9.85;3.33;;;6.90;99.90;;;;;;5004876;28;20062;-70
2024/03/24 07:34:03;;;;;;;7.85;2.25;;;6.90;99.90;;;;;;5010478;28;20541;-71
2024/03/24 07:36:29;;;;;;;14.40;2.08;;;6.90;99.90;;;;;;5005126;28;20151;-71
2024/03/24 07:38:54;;;;;;;10.50;2.20;;;6.90;99.90;;;;;;5003417;28;20155;-70
2024/03/24 07:41:20;;;;;;;13.38;3.25;;;6.90;99.90;;;;;;5007993;28;20026;-70
2024/03/24 07:43:46;;;;;;;14.25;3.45;;;6.90;99.90;;;;;;4996566;28;20034;-69
2024/03/24 07:46:11;;;;;;;8.23;2.22;;;6.90;99.90;;;;;;5008071;28;20439;-71
2024/03/24 07:48:37;;;;;;;8.65;1.80;;;6.90;99.90;;;;;;5009698;28;20060;-71
2024/03/24 07:51:03;;;;;;;12.40;2.17;;;6.90;99.90;;;;;;5010085;28;20072;-70
2024/03/24 07:53:29;;;;;;;13.15;1.88;;;6.90;99.90;;;;;;5009282;28;20398;-70
2024/03/24 07:55:56;;;;;;;13.90;2.67;;;6.90;99.90;;;;;;5010483;28;20037;-72
2024/03/24 07:58:22;;;;;;;17.60;2.50;;;7.00;99.90;;;;;;5005580;28;20137;-70
2024/03/24 08:00:48;;;;;;;12.27;2.70;;;6.90;99.90;;;;;;4989340;28;20145;-70
2024/03/24 08:03:14;;;;;;;13.35;1.75;;;7.00;99.90;;;;;;5007194;28;20053;-69
2024/03/24 08:05:39;;;;;;;7.68;2.13;;;7.10;99.90;;;;;;5007331;28;20140;-71
2024/03/24 08:08:06;;;;;;;16.63;2.33;;;7.20;99.90;;;;;;5011325;28;20034;-71
2024/03/24 08:10:32;;;;;;;8.38;1.70;;;7.30;99.90;;;;;;5009418;28;20153;-71
2024/03/24 08:12:57;;;;;;;16.85;2.17;;;7.50;99.90;;;;;;4993867;28;20219;-71
2024/03/24 08:15:23;;;;;;;8.82;1.63;;;7.60;99.90;;;;;;4997801;28;20148;-70
2024/03/24 08:17:48;;;;;;;5.65;1.65;;;7.60;99.90;;;;;;5009618;28;20041;-71
2024/03/24 08:20:14;;;;;;;12.45;1.73;;;7.60;99.90;;;;;;5006150;28;20046;-69
2024/03/24 08:22:40;;;;;;;12.40;1.88;;;7.60;99.90;;;;;;5010295;28;20061;-70
2024/03/24 08:25:06;;;;;;;10.18;1.77;;;7.50;99.90;;;;;;5008521;28;20567;-69
2024/03/24 08:27:32;;;;;;;7.68;1.92;;;7.30;99.90;;;;;;5007996;28;20034;-70
2024/03/24 08:29:57;;;;;;;8.80;1.17;;;7.20;99.90;;;;;;4992358;28;20037;-70
2024/03/24 08:32:23;;;;;;;7.68;1.08;;;7.10;99.90;;;;;;5009331;28;20144;-70
2024/03/24 08:34:51;;;;;;;9.52;1.42;;;6.90;99.90;;;;;;5011317;28;20041;-70
2024/03/24 08:37:16;;;;;;;5.07;1.52;;;6.80;99.90;;;;;;5009166;28;20030;-70
2024/03/24 08:39:42;;;;;;;6.95;1.23;;;6.70;99.90;;;;;;5010514;28;20026;-68
2024/03/24 08:42:08;;;;;;;11.70;1.58;;;6.70;99.90;;;;;;5010497;28;20044;-71
2024/03/24 08:44:34;;;;;;;6.05;1.83;;;6.80;99.90;;;;;;4992483;28;20483;-70
2024/03/24 08:46:59;;;;;;;15.88;1.80;;;7.00;99.90;;;;;;5006282;28;20123;-72
2024/03/24 08:49:25;;;;;;;16.92;2.78;;;7.20;99.90;;;;;;5008521;28;20037;-72
2024/03/24 08:51:52;;;;;;;14.20;2.38;;;7.40;99.90;;;;;;5010631;28;20045;-72
2024/03/24 08:54:17;;;;;;;13.23;2.00;;;7.50;99.90;;;;;;5010687;28;20029;-73
2024/03/24 08:56:43;;;;;;;11.27;1.70;;;7.60;99.90;;;;;;5011150;28;21297;-71
2024/03/24 08:59:09;;;;;;;10.55;1.95;;;7.50;99.90;;;;;;5010764;28;20414;-72
2024/03/24 09:01:35;;;;;;;12.45;2.15;;;7.50;99.90;;;;;;5010659;28;20034;-72
2024/03/24 09:04:01;;;;;;;5.13;0.73;;;7.40;99.90;;;;;;5011155;28;20368;-72
2024/03/24 09:06:26;;;;;;;3.72;0.73;;;7.30;99.90;;;;;;5004263;28;20045;-72
2024/03/24 09:08:52;;;;;;;3.42;1.08;;;7.10;99.90;;;;;;5009084;28;20546;-72
2024/03/24 09:11:18;;;;;;;5.57;1.17;;;7.00;99.90;;;;;;5005549;28;20050;-71
2024/03/24 09:13:44;;;;;;;5.60;0.70;;;7.00;99.90;;;;;;5012645;28;20075;-70
2024/03/24 09:16:10;;;;;;;6.85;0.93;;;7.00;99.90;;;;;;5014880;28;20041;-73
2024/03/24 09:18:35;;;;;;;9.38;0.60;;;7.00;99.90;;;;;;5015403;28;20802;-72
2024/03/24 09:21:07;;;;;;;6.47;1.65;;;7.00;99.90;;;;;;4966915;28;20402;-73
2024/03/24 09:23:33;;;;;;;10.13;1.20;;;7.00;99.90;;;;;;5009541;28;20574;-70
2024/03/24 09:25:59;;;;;;;6.15;0.90;;;7.10;99.90;;;;;;5012380;28;20289;-71
2024/03/24 09:28:25;;;;;;;4.80;0.40;;;7.30;99.90;;;;;;5013910;28;20492;-72
2024/03/24 09:30:56;;;;;;;5.43;0.77;;;7.30;99.90;;;;;;5018252;28;20041;-72
2024/03/24 09:33:22;;;;;;;4.65;0.73;;;7.40;99.90;;;;;;5010274;28;20026;-71
2024/03/24 09:35:48;;;;;;;9.95;0.90;;;7.50;99.90;;;;;;4999001;28;20056;-71
2024/03/24 09:38:13;;;;;;;10.23;1.15;;;7.70;99.90;;;;;;5014786;28;20034;-69
2024/03/24 09:40:40;;;;;;;2.97;0.38;;;7.90;99.90;;;;;;5009806;28;20088;-73
2024/03/24 09:43:06;;;;;;;13.80;1.63;;;8.10;99.90;;;;;;5010987;28;20042;-71
2024/03/24 09:45:34;;;;;;;3.83;0.77;;;8.20;99.90;;;;;;5016057;28;20026;-70
2024/03/24 09:48:01;;;;;;;5.88;1.15;;;8.20;99.90;;;;;;5006818;28;20133;-71
2024/03/24 09:50:28;;;;;;;5.50;1.08;;;8.20;99.90;;;;;;5008386;28;20041;-72
2024/03/24 09:52:57;;;;;;;6.10;0.98;;;8.00;99.90;;;;;;5007032;28;20061;-72
2024/03/24 09:55:27;;;;;;;7.85;1.17;;;7.90;99.90;;;;;;5010895;28;20037;-73
2024/03/24 09:57:55;;;;;;;11.52;1.33;;;7.80;99.90;;;;;;5002518;28;20038;-72
2024/03/24 10:00:21;;;;;;;15.80;1.23;;;7.70;99.90;;;;;;5006930;28;20564;-73
2024/03/24 10:02:47;;;;;;;5.82;0.55;;;7.70;99.90;;;;;;5005797;28;20058;-71
2024/03/24 10:05:14;;;;;;;9.80;1.30;;;7.60;99.90;;;;;;5008578;28;20075;-72
2024/03/24 10:07:40;;;;;;;11.88;1.45;;;7.70;99.90;;;;;;5007999;28;20042;-72
2024/03/24 10:10:06;;;;;;;8.88;1.73;;;7.80;99.90;;;;;;5006122;28;20097;-72
2024/03/24 10:12:33;;;;;;;7.28;1.23;;;7.70;99.90;;;;;;5009931;28;20053;-73
2024/03/24 10:15:18;;;;;;;10.65;1.70;;;7.80;99.90;;;;;;4981066;28;20030;-73
2024/03/24 10:17:43;;;;;;;17.40;2.08;;;8.00;99.90;;;;;;5004605;28;20510;-71
2024/03/24 10:20:13;;;;;;;19.58;2.22;;;8.10;99.90;;;;;;5007284;28;20041;-72
2024/03/24 10:22:39;;;;;;;7.03;1.48;;;8.30;99.90;;;;;;5002276;28;20041;-72
2024/03/24 10:25:26;;;;;;;11.00;1.65;;;8.30;99.90;;;;;;4998091;28;20050;-73
2024/03/24 10:27:52;;;;;;;4.18;0.98;;;8.20;99.90;;;;;;5009283;28;20041;-73
2024/03/24 10:30:19;;;;;;;7.85;1.40;;;8.20;99.90;;;;;;4996478;28;20137;-73
2024/03/24 10:32:44;;;;;;;15.63;2.35;;;8.10;99.90;;;;;;4999937;28;20399;-69
2024/03/24 10:35:11;;;;;;;7.50;1.40;;;8.00;99.90;;;;;;5013095;28;20036;-73
2024/03/24 10:37:38;;;;;;;17.30;3.63;;;8.00;99.90;;;;;;5009462;28;20040;-72
2024/03/24 10:40:13;;;;;;;6.88;1.00;;;8.10;99.90;;;;;;5012708;28;20026;-74
2024/03/24 10:42:52;;;;;;;13.27;2.33;;;8.00;99.90;;;;;;5008117;28;20115;-73
2024/03/24 10:45:28;;;;;;;5.97;1.92;;;8.10;99.90;;;;;;4999096;28;20030;-73
2024/03/24 10:48:03;;;;;;;9.90;1.80;;;8.00;99.90;;;;;;5010681;28;20034;-72
2024/03/24 10:50:29;;;;;;;7.22;1.00;;;8.10;99.90;;;;;;5007445;28;20030;-72
2024/03/24 10:53:03;;;;;;;5.88;1.02;;;8.10;99.90;;;;;;5011784;28;20075;-74
2024/03/24 10:55:31;;;;;;;6.50;0.95;;;8.10;99.90;;;;;;5009016;28;20101;-72
2024/03/24 10:57:58;;;;;;;6.43;0.75;;;8.30;99.90;;;;;;5007580;28;20396;-73
2024/03/24 11:00:30;;;;;;;5.53;0.85;;;8.20;99.90;;;;;;5012213;28;20029;-73
2024/03/24 11:02:57;;;;;;;8.20;0.98;;;8.20;99.90;;;;;;5008607;28;20038;-73
2024/03/24 11:05:25;;;;;;;6.38;1.00;;;8.30;99.90;;;;;;5013371;28;20052;-73
2024/03/24 11:07:53;;;;;;;10.63;1.05;;;8.30;99.90;;;;;;5009609;28;20095;-74
2024/03/24 11:10:20;;;;;;;11.20;1.17;;;8.40;99.90;;;;;;5012055;28;20049;-73
2024/03/24 11:12:47;;;;;;;6.93;0.95;;;8.40;99.90;;;;;;5006786;28;20029;-71
2024/03/24 11:15:13;;;;;;;8.80;1.30;;;8.50;99.90;;;;;;5005785;28;20037;-73
2024/03/24 11:17:39;;;;;;;5.55;0.85;;;8.50;99.90;;;;;;5013529;28;20034;-72
2024/03/24 11:20:06;;;;;;;6.53;0.90;;;8.40;99.90;;;;;;4991545;28;20038;-71
2024/03/24 11:22:35;;;;;;;9.20;0.65;;;8.00;99.90;;;;;;5009353;28;20103;-72
2024/03/24 11:25:04;;;;;;;9.13;0.77;;;7.80;99.90;;;;;;5009311;28;20034;-74
2024/03/24 11:27:30;;;;;;;9.20;1.13;;;7.80;99.90;;;;;;5006694;28;20045;-72
2024/03/24 11:29:56;;;;;;;17.02;1.65;;;7.80;99.90;;;;;;5011022;28;20404;-73
2024/03/24 11:32:42;;;;;;;9.27;1.35;;;7.90;99.90;;;;;;5011548;28;20041;-73
2024/03/24 11:35:08;;;;;;;6.32;1.10;;;8.10;99.90;;;;;;4990401;28;20060;-73
2024/03/24 11:37:34;;;;;;;7.72;1.15;;;8.20;99.90;;;;;;5007158;28;20030;-72
2024/03/24 11:40:02;;;;;;;5.10;1.15;;;8.20;99.90;;;;;;5011728;28;20041;-73
2024/03/24 11:42:29;;;;;;;7.40;0.65;;;8.30;99.90;;;;;;5012336;28;20033;-73
2024/03/24 11:44:55;;;;;;;5.32;1.30;;;8.30;99.90;;;;;;5007461;28;20073;-72
2024/03/24 11:47:20;;;;;;;14.60;1.85;;;8.30;99.90;;;;;;5014563;28;20057;-72
2024/03/24 11:49:49;;;;;;;9.48;1.45;;;8.40;99.90;;;;;;5005019;28;20419;-69
2024/03/24 11:52:16;;;;;;;8.52;0.85;;;8.50;99.90;;;;;;5005427;28;20200;-72
2024/03/24 11:54:44;;;;;;;7.63;1.52;;;8.60;99.90;;;;;;5002990;28;20033;-73
2024/03/24 11:57:11;;;;;;;10.23;1.83;;;8.80;99.90;;;;;;5006874;28;20085;-72
2024/03/24 11:59:36;;;;;;;7.35;1.67;;;8.90;99.90;;;;;;5011391;28;20049;-72
2024/03/24 12:02:03;;;;;;;5.25;0.68;;;8.90;99.90;;;;;;4986915;28;20054;-72
2024/03/24 12:04:30;;;;;;;8.30;1.90;;;8.90;99.90;;;;;;5009217;28;20163;-73
2024/03/24 12:06:56;;;;;;;5.90;1.00;;;9.00;99.90;;;;;;5008575;28;20129;-72
2024/03/24 12:09:22;;;;;;;9.85;1.35;;;9.00;99.90;;;;;;5014989;28;20076;-73
2024/03/24 12:11:54;;;;;;;7.15;1.35;;;9.10;99.90;;;;;;5003118;28;20045;-70
2024/03/24 12:14:21;;;;;;;4.60;0.90;;;9.10;99.90;;;;;;5011288;28;20068;-71
2024/03/24 12:16:46;;;;;;;9.70;1.02;;;9.10;99.90;;;;;;5006804;28;20039;-71
2024/03/24 12:19:13;;;;;;;4.18;0.50;;;9.00;99.90;;;;;;5013382;28;20037;-72
2024/03/24 12:21:39;;;;;;;13.32;2.75;;;9.10;99.90;;;;;;4992487;28;20316;-73
2024/03/24 12:24:05;;;;;;;14.02;1.95;;;9.40;99.90;;;;;;4998966;28;20557;-71
2024/03/24 12:26:30;;;;;;;8.68;1.23;;;9.40;99.90;;;;;;5010922;28;20040;-74
2024/03/24 12:28:59;;;;;;;6.32;1.17;;;9.30;99.90;;;;;;5004299;28;20424;-72
2024/03/24 12:31:28;;;;;;;7.70;1.00;;;9.20;99.90;;;;;;5016005;28;20052;-73
2024/03/24 12:33:54;;;;;;;10.52;3.45;;;9.00;99.90;;;;;;5007735;28;20088;-74
2024/03/24 12:36:20;;;;;;;14.70;1.27;;;9.00;99.90;;;;;;5008625;28;20037;-74
2024/03/24 12:38:48;;;;;;;13.85;2.13;;;9.00;99.90;;;;;;4990932;28;20049;-70
2024/03/24 12:41:21;;;;;;;10.93;1.13;;;9.20;99.90;;;;;;5007807;28;20095;-71
2024/03/24 12:43:53;;;;;;;9.10;2.35;;;9.20;99.90;;;;;;5004811;28;20064;-73
2024/03/24 12:46:31;;;;;;;10.52;1.33;;;9.30;99.90;;;;;;5008893;28;20044;-73
2024/03/24 12:49:19;;;;;;;4.05;0.80;;;9.40;99.90;;;;;;5004446;28;20048;-73